createdAt,value
2022-12-05T00:03:37.129Z,0.20
2022-12-05T00:08:38.078Z,0.19
2022-12-05T00:13:40.114Z,0.17
2022-12-05T00:18:41.514Z,0.18
2022-12-05T00:23:42.985Z,0.19
2022-12-05T00:28:43.929Z,0.27
2022-12-05T00:33:45.370Z,0.30
2022-12-05T00:38:46.917Z,0.23
2022-12-05T00:43:48.225Z,0.23
2022-12-05T00:48:49.548Z,0.25
2022-12-05T00:53:50.715Z,0.21
2022-12-05T00:58:53.375Z,0.37
2022-12-05T01:03:56.744Z,0.45
2022-12-05T01:08:57.907Z,0.51
2022-12-05T01:13:58.746Z,0.46
2022-12-05T01:19:02.066Z,0.39
2022-12-05T01:24:03.584Z,0.47
2022-12-05T01:29:04.627Z,0.46
2022-12-05T01:34:07.666Z,0.42
2022-12-05T01:39:09.469Z,0.45
2022-12-05T01:45:45.436Z,0.48
2022-12-05T01:50:48.445Z,0.60
2022-12-05T01:55:50.696Z,0.64
2022-12-05T02:00:52.115Z,0.66
2022-12-05T02:05:57.410Z,0.67
2022-12-05T02:10:59.210Z,0.53
2022-12-05T02:16:10.669Z,0.54
2022-12-05T02:21:52.634Z,0.61
2022-12-05T02:28:55.820Z,0.54
2022-12-05T02:34:22.207Z,0.59
2022-12-05T02:39:40.116Z,0.66
2022-12-05T02:45:09.092Z,0.65
2022-12-05T02:50:13.114Z,0.70
2022-12-05T02:55:16.724Z,0.71
2022-12-05T03:00:18.180Z,0.81
2022-12-05T03:05:46.522Z,0.83
2022-12-05T03:10:49.457Z,0.74
2022-12-05T03:15:54.825Z,0.68
2022-12-05T03:21:15.433Z,0.64
2022-12-05T03:26:39.859Z,0.73
2022-12-05T03:33:06.284Z,0.77
2022-12-05T03:38:11.973Z,0.76
2022-12-05T03:43:23.811Z,0.58
2022-12-05T03:48:36.412Z,0.59
2022-12-05T03:53:46.234Z,0.68
2022-12-05T03:58:54.491Z,0.58
2022-12-05T04:04:04.731Z,0.67
2022-12-05T04:09:17.980Z,0.65
2022-12-05T04:14:22.094Z,0.63
2022-12-05T04:20:15.653Z,0.62
2022-12-05T04:25:32.496Z,0.55
2022-12-05T04:30:45.377Z,0.68
2022-12-05T04:36:09.150Z,0.51
2022-12-05T04:41:27.945Z,0.33
2022-12-05T04:46:28.835Z,0.28
2022-12-05T04:51:33.915Z,0.26
2022-12-05T04:56:37.424Z,0.20
2022-12-05T05:02:14.659Z,0.18
2022-12-05T05:07:16.309Z,0.14
2022-12-05T05:12:19.285Z,0.20
2022-12-05T05:17:20.230Z,0.24
2022-12-05T05:22:20.965Z,0.42
2022-12-05T05:27:21.698Z,0.40
2022-12-05T05:32:22.459Z,0.32
2022-12-05T05:37:23.804Z,0.35
2022-12-05T05:42:24.605Z,0.42
2022-12-05T05:47:25.401Z,0.54
2022-12-05T05:52:26.133Z,0.57
2022-12-05T05:57:26.888Z,0.59
2022-12-05T06:02:35.129Z,0.65
2022-12-05T06:07:36.189Z,0.61
2022-12-05T06:12:37.188Z,0.72
2022-12-05T06:17:38.137Z,0.70
2022-12-05T06:22:39.022Z,0.78
2022-12-05T06:27:39.764Z,0.76
2022-12-05T06:32:40.490Z,0.82
2022-12-05T06:37:43.047Z,0.61
2022-12-05T06:42:43.772Z,0.60
2022-12-05T06:47:44.555Z,0.50
2022-12-05T06:52:45.258Z,0.46
2022-12-05T06:57:46.033Z,0.55
2022-12-05T07:02:50.094Z,0.62
2022-12-05T07:07:51.281Z,0.68
2022-12-05T07:12:52.217Z,0.63
2022-12-05T07:17:53.219Z,0.68
2022-12-05T07:22:53.982Z,0.80
2022-12-05T07:27:54.791Z,0.82
2022-12-05T07:32:55.539Z,0.93
2022-12-05T07:37:56.435Z,0.96
2022-12-05T07:42:57.214Z,1.00
2022-12-05T07:47:58.185Z,1.01
2022-12-05T07:52:59.009Z,1.08
2022-12-05T07:57:59.778Z,1.11
2022-12-05T08:03:02.709Z,1.29
2022-12-05T08:08:03.881Z,1.04
2022-12-05T08:13:05.026Z,1.00
2022-12-05T08:18:05.788Z,1.02
2022-12-05T08:23:06.564Z,0.80
2022-12-05T08:28:07.330Z,0.59
2022-12-05T08:33:08.103Z,0.74
2022-12-05T08:38:08.897Z,0.78
2022-12-05T08:43:09.648Z,0.82
2022-12-05T08:48:10.378Z,0.77
2022-12-05T08:53:11.610Z,0.85
2022-12-05T08:58:13.373Z,0.85
2022-12-05T09:03:14.180Z,0.85
2022-12-05T09:08:15.141Z,1.01
2022-12-05T09:13:16.102Z,1.01
2022-12-05T09:18:16.999Z,1.14
2022-12-05T09:23:17.725Z,0.88
2022-12-05T09:28:18.489Z,1.15
2022-12-05T09:33:19.202Z,1.33
2022-12-05T09:38:20.648Z,1.39
2022-12-05T09:45:06.620Z,1.55
2022-12-05T09:53:40.456Z,1.58
2022-12-05T09:58:56.293Z,1.46
2022-12-05T10:11:10.200Z,1.49
2022-12-05T10:16:21.974Z,1.58
2022-12-05T10:21:51.420Z,1.55
2022-12-05T10:27:01.808Z,1.60
2022-12-05T10:32:29.898Z,1.66
2022-12-05T10:37:30.890Z,1.69
2022-12-05T10:42:34.886Z,1.70
2022-12-05T10:47:35.797Z,1.80
2022-12-05T10:52:36.772Z,1.76
2022-12-05T10:57:37.532Z,1.64
2022-12-05T11:02:40.156Z,1.68
2022-12-05T11:07:48.753Z,1.64
2022-12-05T11:12:50.520Z,1.70
2022-12-05T11:17:54.227Z,1.84
2022-12-05T11:22:56.176Z,1.88
2022-12-05T11:28:01.413Z,1.98
2022-12-05T11:34:20.452Z,2.08
2022-12-05T11:39:21.280Z,2.09
2022-12-05T11:47:48.612Z,2.01
2022-12-05T11:57:39.836Z,2.09
2022-12-05T12:06:42.372Z,2.03
2022-12-05T12:13:22.021Z,2.00
2022-12-05T12:18:51.260Z,1.95
2022-12-05T12:24:11.648Z,1.94
2022-12-05T12:30:24.103Z,2.03
2022-12-05T12:36:25.840Z,2.08
2022-12-05T12:41:41.595Z,2.19
2022-12-05T12:47:10.279Z,2.39
2022-12-05T12:52:18.099Z,2.67
2022-12-05T12:57:48.236Z,2.58
2022-12-05T13:03:02.184Z,2.44
2022-12-05T13:08:59.142Z,2.38
2022-12-05T13:14:01.679Z,2.25
2022-12-05T13:19:06.293Z,2.19
2022-12-05T13:24:13.184Z,2.27
2022-12-05T13:29:37.067Z,2.21
2022-12-05T13:34:47.408Z,2.20
2022-12-05T13:40:12.776Z,2.22
2022-12-05T13:45:20.094Z,2.32
2022-12-05T13:51:06.232Z,2.30
2022-12-05T13:57:02.578Z,2.31
2022-12-05T14:02:46.490Z,2.36
2022-12-05T14:07:58.564Z,2.35
2022-12-05T14:13:41.230Z,2.35
2022-12-05T14:18:56.610Z,2.28
2022-12-05T14:24:19.540Z,2.31
2022-12-05T14:30:01.644Z,2.35
2022-12-05T14:35:39.645Z,2.56
2022-12-05T14:40:43.759Z,2.41
2022-12-05T14:46:02.852Z,2.32
2022-12-05T14:52:23.380Z,2.34
2022-12-05T14:57:24.817Z,2.27
2022-12-05T15:02:30.914Z,2.38
2022-12-05T15:07:36.760Z,2.35
2022-12-05T15:13:07.101Z,2.32
2022-12-05T15:20:04.060Z,2.29
2022-12-05T15:25:26.403Z,2.35
2022-12-05T15:30:28.729Z,2.36
2022-12-05T15:35:33.544Z,2.29
2022-12-05T15:40:38.413Z,2.22
2022-12-05T15:45:39.238Z,2.24
2022-12-05T15:50:46.795Z,2.40
2022-12-05T15:57:44.032Z,2.42
2022-12-05T16:03:26.535Z,2.48
2022-12-05T16:08:39.922Z,2.52
2022-12-05T16:13:54.314Z,2.50
2022-12-05T16:18:58.627Z,2.56
2022-12-05T16:24:02.274Z,2.57
2022-12-05T16:29:03.537Z,2.55
2022-12-05T16:34:07.523Z,2.56
2022-12-05T16:39:19.187Z,2.54
2022-12-05T16:45:04.049Z,2.56
2022-12-05T16:50:28.611Z,2.72
2022-12-05T16:55:35.635Z,2.57
2022-12-05T17:00:38.011Z,2.59
2022-12-05T17:05:39.047Z,2.57
2022-12-05T17:10:41.829Z,2.63
2022-12-05T17:15:42.804Z,2.66
2022-12-05T17:20:47.542Z,2.62
2022-12-05T17:25:54.870Z,2.67
2022-12-05T17:30:55.595Z,2.69
2022-12-05T17:35:56.758Z,2.69
2022-12-05T17:41:00.256Z,2.61
2022-12-05T17:46:03.719Z,2.59
2022-12-05T17:51:09.350Z,2.50
2022-12-05T17:56:11.317Z,2.48
2022-12-05T18:01:18.938Z,2.40
2022-12-05T18:06:19.757Z,2.36
2022-12-05T18:11:20.522Z,2.42
2022-12-05T18:16:21.644Z,2.40
2022-12-05T18:21:22.548Z,2.41
2022-12-05T18:26:23.405Z,2.38
2022-12-05T18:31:25.043Z,2.69
2022-12-05T18:36:25.865Z,2.49
2022-12-05T18:41:26.735Z,2.46
2022-12-05T18:46:27.658Z,2.47
2022-12-05T18:51:28.601Z,2.40
2022-12-05T18:56:33.756Z,2.32
2022-12-05T19:01:37.914Z,2.29
2022-12-05T19:06:42.299Z,2.31
2022-12-05T19:11:47.780Z,2.36
2022-12-05T19:16:54.981Z,2.24
2022-12-05T19:21:59.430Z,2.36
2022-12-05T19:27:00.143Z,2.30
2022-12-05T19:32:02.136Z,2.29
2022-12-05T19:37:03.093Z,2.31
2022-12-05T19:42:04.123Z,2.31
2022-12-05T19:47:04.911Z,2.30
2022-12-05T19:52:05.682Z,2.36
2022-12-05T19:57:06.417Z,2.34
2022-12-05T20:02:07.248Z,2.29
2022-12-05T20:07:08.253Z,2.30
2022-12-05T20:12:09.014Z,2.29
2022-12-05T20:17:09.988Z,2.38
2022-12-05T20:22:10.943Z,2.34
2022-12-05T20:27:11.686Z,2.27
2022-12-05T20:32:12.501Z,2.27
2022-12-05T20:37:13.223Z,2.25
2022-12-05T20:42:14.295Z,2.12
2022-12-05T20:47:15.240Z,2.14
2022-12-05T20:52:16.001Z,2.18
2022-12-05T20:57:16.727Z,1.97
2022-12-05T21:02:17.551Z,1.92
2022-12-05T21:07:18.345Z,1.85
2022-12-05T21:12:19.890Z,1.85
2022-12-05T21:17:22.144Z,1.92
2022-12-05T21:22:22.935Z,1.92
2022-12-05T21:27:23.712Z,1.88
2022-12-05T21:32:27.252Z,1.81
2022-12-05T21:37:28.496Z,1.73
2022-12-05T21:42:29.374Z,1.69
2022-12-05T21:47:30.179Z,1.70
2022-12-05T21:52:38.583Z,1.72
2022-12-05T21:57:39.401Z,1.60
2022-12-05T22:02:41.295Z,1.60
2022-12-05T22:07:42.103Z,1.68
2022-12-05T22:12:43.333Z,1.64
2022-12-05T22:17:44.149Z,1.55
2022-12-05T22:22:44.941Z,2.26
2022-12-05T22:27:45.702Z,1.93
2022-12-05T22:32:46.434Z,1.87
2022-12-05T22:37:47.176Z,1.79
2022-12-05T22:42:48.465Z,1.76
2022-12-05T22:47:49.296Z,1.66
2022-12-05T22:52:50.042Z,1.60
2022-12-05T22:57:50.773Z,1.64
2022-12-05T23:02:52.084Z,1.56
2022-12-05T23:07:52.988Z,1.60
2022-12-05T23:12:54.494Z,1.57
2022-12-05T23:17:56.199Z,1.59
2022-12-05T23:22:57.194Z,1.60
2022-12-05T23:27:58.025Z,1.56
2022-12-05T23:32:58.752Z,1.62
2022-12-05T23:37:59.523Z,1.64
2022-12-05T23:43:00.240Z,1.47
2022-12-05T23:48:04.537Z,1.49
2022-12-05T23:53:05.621Z,1.47
2022-12-05T23:58:06.331Z,1.49
